createdAt,value
2022-11-28T00:04:55.817Z,10.98
2022-11-28T00:09:57.450Z,8.65
2022-11-28T00:14:59.071Z,11.18
2022-11-28T00:20:00.657Z,13.93
2022-11-28T00:25:02.238Z,12.18
2022-11-28T00:30:04.374Z,10.45
2022-11-28T00:35:06.239Z,8.18
2022-11-28T00:40:08.107Z,10.30
2022-11-28T00:45:09.659Z,12.25
2022-11-28T00:50:11.402Z,11.30
2022-11-28T00:55:12.991Z,12.05
2022-11-28T01:00:15.160Z,12.38
2022-11-28T01:05:16.851Z,11.05
2022-11-28T01:10:18.792Z,11.85
2022-11-28T01:15:20.354Z,12.40
2022-11-28T01:20:21.859Z,10.70
2022-11-28T01:25:23.773Z,14.60
2022-11-28T01:30:25.495Z,13.05
2022-11-28T01:35:27.218Z,11.45
2022-11-28T01:40:28.754Z,11.13
2022-11-28T01:45:31.878Z,10.00
2022-11-28T01:50:36.101Z,13.30
2022-11-28T01:55:49.332Z,16.73
2022-11-28T02:00:51.232Z,13.57
2022-11-28T02:06:02.683Z,12.43
2022-11-28T02:11:22.820Z,12.50
2022-11-28T02:16:35.498Z,12.98
2022-11-28T02:21:54.999Z,15.40
2022-11-28T02:27:28.522Z,14.52
2022-11-28T02:32:42.162Z,12.85
2022-11-28T02:37:43.635Z,13.18
2022-11-28T02:43:00.539Z,12.90
2022-11-28T02:48:07.081Z,13.90
2022-11-28T02:53:20.161Z,13.23
2022-11-28T02:58:21.648Z,13.50
2022-11-28T03:03:35.573Z,13.77
2022-11-28T03:09:01.369Z,14.85
2022-11-28T03:14:30.406Z,11.70
2022-11-28T03:19:37.883Z,12.38
2022-11-28T03:25:00.667Z,13.57
2022-11-28T03:30:42.674Z,16.40
2022-11-28T03:35:51.466Z,15.88
2022-11-28T03:40:58.439Z,12.63
2022-11-28T03:46:07.687Z,13.68
2022-11-28T03:51:15.206Z,17.08
2022-11-28T03:56:21.728Z,14.25
2022-11-28T04:01:32.141Z,15.40
2022-11-28T04:06:50.926Z,16.00
2022-11-28T04:11:56.674Z,13.27
2022-11-28T04:17:38.028Z,14.05
2022-11-28T04:22:47.030Z,15.48
2022-11-28T04:27:55.007Z,13.65
2022-11-28T04:33:02.751Z,13.88
2022-11-28T04:38:07.194Z,14.05
2022-11-28T04:43:16.705Z,15.65
2022-11-28T04:48:18.733Z,19.25
2022-11-28T04:53:34.079Z,17.63
2022-11-28T04:58:41.144Z,17.38
2022-11-28T05:03:43.110Z,15.35
2022-11-28T05:08:44.693Z,14.75
2022-11-28T05:13:46.525Z,16.80
2022-11-28T05:18:48.495Z,14.35
2022-11-28T05:23:50.099Z,17.13
2022-11-28T05:28:52.065Z,17.60
2022-11-28T05:33:55.204Z,18.98
2022-11-28T05:38:56.763Z,17.20
2022-11-28T05:43:59.647Z,16.52
2022-11-28T05:49:01.281Z,18.35
2022-11-28T05:54:02.926Z,16.17
2022-11-28T05:59:04.461Z,18.20
2022-11-28T06:04:06.039Z,16.85
2022-11-28T06:09:07.775Z,18.75
2022-11-28T06:14:10.644Z,17.40
2022-11-28T06:19:14.966Z,16.05
2022-11-28T06:24:16.750Z,14.98
2022-11-28T06:29:18.410Z,17.95
2022-11-28T06:34:19.977Z,18.17
2022-11-28T06:39:21.586Z,19.13
2022-11-28T06:44:23.092Z,18.83
2022-11-28T06:49:24.617Z,20.67
2022-11-28T06:54:28.006Z,17.23
2022-11-28T06:59:29.644Z,20.45
2022-11-28T07:04:32.469Z,22.92
2022-11-28T07:09:34.220Z,17.55
2022-11-28T07:14:36.060Z,20.08
2022-11-28T07:19:37.755Z,19.65
2022-11-28T07:24:39.306Z,18.60
2022-11-28T07:29:41.221Z,16.42
2022-11-28T07:34:46.608Z,21.27
2022-11-28T07:39:51.704Z,15.07
2022-11-28T07:44:53.335Z,18.02
2022-11-28T07:49:55.061Z,17.60
2022-11-28T07:54:56.581Z,13.82
2022-11-28T07:59:58.095Z,15.13
2022-11-28T08:04:59.693Z,13.77
2022-11-28T08:10:01.235Z,14.68
2022-11-28T08:15:03.049Z,15.20
2022-11-28T08:20:05.212Z,17.02
2022-11-28T08:25:07.010Z,13.63
2022-11-28T08:30:09.452Z,13.88
2022-11-28T08:35:11.113Z,14.75
2022-11-28T08:40:14.329Z,14.43
2022-11-28T08:45:16.004Z,16.10
2022-11-28T08:50:17.605Z,15.48
2022-11-28T08:55:25.011Z,14.43
2022-11-28T09:00:33.285Z,16.92
2022-11-28T09:05:34.781Z,16.60
2022-11-28T09:10:37.953Z,13.65
2022-11-28T09:15:42.260Z,14.73
2022-11-28T09:20:44.092Z,16.80
2022-11-28T09:25:45.633Z,16.02
2022-11-28T09:30:47.325Z,12.27
2022-11-28T09:35:48.865Z,15.65
2022-11-28T09:40:51.596Z,13.23
2022-11-28T09:45:54.592Z,14.02
2022-11-28T09:51:02.929Z,12.55
2022-11-28T09:56:18.419Z,14.85
2022-11-28T10:01:37.593Z,14.65
2022-11-28T10:07:11.254Z,17.17
2022-11-28T10:12:12.746Z,14.48
2022-11-28T10:17:21.061Z,16.33
2022-11-28T10:22:32.398Z,12.38
2022-11-28T10:27:35.739Z,12.82
2022-11-28T10:32:44.090Z,12.45
2022-11-28T10:37:45.878Z,16.13
2022-11-28T10:43:06.268Z,15.27
2022-11-28T10:48:45.733Z,15.00
2022-11-28T10:54:11.681Z,12.82
2022-11-28T10:59:34.876Z,14.35
2022-11-28T11:04:38.697Z,16.85
2022-11-28T11:09:41.293Z,14.45
2022-11-28T11:14:43.788Z,15.38
2022-11-28T11:19:45.493Z,13.00
2022-11-28T11:25:16.016Z,13.48
2022-11-28T11:30:32.000Z,15.73
2022-11-28T11:35:43.785Z,14.32
2022-11-28T11:40:45.423Z,18.15
2022-11-28T11:45:51.282Z,15.93
2022-11-28T11:50:54.467Z,12.45
2022-11-28T11:55:58.422Z,11.68
2022-11-28T12:01:00.933Z,12.50
2022-11-28T12:06:15.059Z,15.43
2022-11-28T12:11:36.938Z,11.65
2022-11-28T12:17:40.399Z,13.07
2022-11-28T12:22:45.238Z,12.93
2022-11-28T12:28:12.476Z,14.57
2022-11-28T12:33:36.122Z,23.38
2022-11-28T12:38:43.687Z,15.50
2022-11-28T12:43:57.930Z,17.63
2022-11-28T12:49:12.908Z,14.02
2022-11-28T12:54:41.670Z,15.02
2022-11-28T13:00:08.143Z,15.77
2022-11-28T13:05:18.910Z,15.10
2022-11-28T13:10:35.323Z,16.63
2022-11-28T13:15:43.104Z,17.53
2022-11-28T13:21:16.818Z,14.45
2022-11-28T13:26:34.362Z,12.50
2022-11-28T13:32:03.938Z,14.23
2022-11-28T13:43:06.475Z,14.13
2022-11-28T13:48:20.441Z,15.88
2022-11-28T13:53:24.348Z,14.48
2022-11-28T13:58:33.816Z,14.52
2022-11-28T14:03:46.511Z,13.80
2022-11-28T14:08:56.963Z,15.27
2022-11-28T14:14:22.362Z,14.05
2022-11-28T14:19:45.869Z,11.32
2022-11-28T14:24:50.146Z,13.27
2022-11-28T14:29:54.720Z,13.63
2022-11-28T14:34:57.134Z,16.42
2022-11-28T14:39:58.724Z,15.68
2022-11-28T14:45:42.823Z,15.40
2022-11-28T14:50:45.956Z,15.98
2022-11-28T14:55:47.616Z,17.10
2022-11-28T15:00:55.858Z,18.13
2022-11-28T15:06:08.645Z,22.27
2022-11-28T15:11:22.323Z,16.83
2022-11-28T15:16:24.749Z,19.10
2022-11-28T15:21:29.024Z,17.50
2022-11-28T15:26:30.773Z,19.17
2022-11-28T15:31:33.225Z,15.95
2022-11-28T15:36:34.821Z,21.33
2022-11-28T15:41:36.380Z,20.40
2022-11-28T15:46:38.022Z,19.40
2022-11-28T15:51:40.146Z,20.05
2022-11-28T15:56:59.609Z,25.85
2022-11-28T16:02:16.578Z,32.22
2022-11-28T16:07:18.962Z,24.23
2022-11-28T16:12:20.888Z,20.13
2022-11-28T16:17:27.394Z,20.17
2022-11-28T16:22:38.058Z,21.05
2022-11-28T16:27:42.673Z,31.42
2022-11-28T16:32:44.310Z,22.88
2022-11-28T16:37:45.876Z,41.17
2022-11-28T16:42:53.300Z,30.95
2022-11-28T16:48:08.078Z,23.20
2022-11-28T16:53:38.626Z,25.15
2022-11-28T16:58:40.133Z,25.83
2022-11-28T17:03:44.475Z,28.38
2022-11-28T17:08:46.625Z,53.67
2022-11-28T17:13:48.404Z,36.40
2022-11-28T17:18:50.767Z,27.00
2022-11-28T17:23:52.272Z,51.15
2022-11-28T17:28:54.115Z,34.05
2022-11-28T17:33:55.645Z,24.73
2022-11-28T17:39:00.965Z,21.25
2022-11-28T17:44:06.005Z,23.27
2022-11-28T17:49:07.606Z,26.50
2022-11-28T17:54:12.503Z,47.53
2022-11-28T17:59:15.974Z,28.52
2022-11-28T18:04:18.126Z,29.30
2022-11-28T18:09:19.700Z,26.38
2022-11-28T18:14:21.412Z,22.83
2022-11-28T18:19:23.056Z,20.73
2022-11-28T18:24:24.605Z,27.52
2022-11-28T18:29:26.771Z,24.73
2022-11-28T18:34:28.319Z,21.58
2022-11-28T18:39:30.352Z,25.40
2022-11-28T18:44:32.121Z,23.35
2022-11-28T18:49:33.658Z,24.73
2022-11-28T18:54:35.701Z,23.75
2022-11-28T18:59:37.962Z,23.00
2022-11-28T19:04:39.733Z,23.55
2022-11-28T19:09:41.451Z,28.75
2022-11-28T19:14:43.208Z,22.52
2022-11-28T19:19:45.141Z,30.55
2022-11-28T19:24:46.878Z,37.65
2022-11-28T19:29:48.382Z,63.28
2022-11-28T19:34:49.876Z,28.70
2022-11-28T19:39:51.671Z,33.08
2022-11-28T19:44:53.163Z,30.20
2022-11-28T19:49:54.766Z,31.30
2022-11-28T19:54:57.074Z,40.15
2022-11-28T19:59:58.757Z,28.35
2022-11-28T20:05:00.634Z,25.15
2022-11-28T20:10:02.166Z,28.95
2022-11-28T20:15:04.262Z,30.45
2022-11-28T20:20:06.940Z,26.38
2022-11-28T20:25:08.578Z,25.13
2022-11-28T20:30:10.617Z,26.40
2022-11-28T20:35:12.395Z,28.83
2022-11-28T20:40:14.268Z,27.45
2022-11-28T20:45:15.870Z,34.70
2022-11-28T20:50:17.450Z,29.33
2022-11-28T20:55:18.963Z,29.50
2022-11-28T21:00:26.272Z,33.05
2022-11-28T21:05:28.179Z,30.60
2022-11-28T21:10:29.733Z,30.35
2022-11-28T21:15:31.379Z,31.27
2022-11-28T21:20:32.909Z,28.20
2022-11-28T21:25:36.250Z,29.35
2022-11-28T21:30:43.567Z,27.30
2022-11-28T21:35:45.060Z,29.50
2022-11-28T21:40:52.359Z,32.40
2022-11-28T21:46:00.183Z,29.52
2022-11-28T21:51:02.137Z,30.25
2022-11-28T21:56:03.879Z,30.45
2022-11-28T22:01:08.901Z,37.08
2022-11-28T22:06:23.918Z,34.25
2022-11-28T22:11:25.503Z,33.67
2022-11-28T22:16:29.273Z,29.33
2022-11-28T22:26:53.390Z,29.23
2022-11-28T22:31:55.074Z,29.70
2022-11-28T22:36:57.885Z,29.10
2022-11-28T22:41:59.627Z,32.50
2022-11-28T22:47:01.143Z,29.30
2022-11-28T22:52:04.037Z,32.75
2022-11-28T22:57:05.564Z,34.95
2022-11-28T23:02:07.252Z,36.60
2022-11-28T23:07:09.492Z,38.55
2022-11-28T23:12:11.019Z,37.95
2022-11-28T23:17:12.524Z,40.90
2022-11-28T23:22:15.036Z,41.90
2022-11-28T23:27:16.852Z,38.33
2022-11-28T23:32:18.475Z,38.92
2022-11-28T23:37:20.438Z,38.78
2022-11-28T23:42:21.955Z,42.17
2022-11-28T23:47:23.519Z,37.97
2022-11-28T23:52:25.110Z,32.85
2022-11-28T23:57:26.619Z,30.58
